sensor_id;sensor_type;location;lat;lon;timestamp;P1;durP1;ratioP1;P2;durP2;ratioP2
809;SDS011;387;48.772;9.186;2022-12-18T00:01:32;82.00;;;32.93;;
809;SDS011;387;48.772;9.186;2022-12-18T00:03:59;99.78;;;34.78;;
809;SDS011;387;48.772;9.186;2022-12-18T00:06:28;82.72;;;34.20;;
809;SDS011;387;48.772;9.186;2022-12-18T00:08:55;80.30;;;32.90;;
809;SDS011;387;48.772;9.186;2022-12-18T00:11:22;89.07;;;35.80;;
809;SDS011;387;48.772;9.186;2022-12-18T00:13:50;89.22;;;34.90;;
809;SDS011;387;48.772;9.186;2022-12-18T00:16:17;91.70;;;35.00;;
809;SDS011;387;48.772;9.186;2022-12-18T00:18:51;86.95;;;33.97;;
809;SDS011;387;48.772;9.186;2022-12-18T00:21:18;83.03;;;34.22;;
809;SDS011;387;48.772;9.186;2022-12-18T00:23:45;95.68;;;33.85;;
809;SDS011;387;48.772;9.186;2022-12-18T00:26:15;88.82;;;35.63;;
809;SDS011;387;48.772;9.186;2022-12-18T00:28:43;81.57;;;33.00;;
809;SDS011;387;48.772;9.186;2022-12-18T00:31:13;87.38;;;36.17;;
809;SDS011;387;48.772;9.186;2022-12-18T00:33:40;81.45;;;33.38;;
809;SDS011;387;48.772;9.186;2022-12-18T00:36:07;84.90;;;33.53;;
809;SDS011;387;48.772;9.186;2022-12-18T00:38:53;95.82;;;35.22;;
809;SDS011;387;48.772;9.186;2022-12-18T00:41:20;91.70;;;35.45;;
809;SDS011;387;48.772;9.186;2022-12-18T00:44:10;86.15;;;32.05;;
809;SDS011;387;48.772;9.186;2022-12-18T00:46:37;97.35;;;36.22;;
809;SDS011;387;48.772;9.186;2022-12-18T00:49:03;86.57;;;34.17;;
809;SDS011;387;48.772;9.186;2022-12-18T00:51:29;84.27;;;32.40;;
809;SDS011;387;48.772;9.186;2022-12-18T00:53:54;92.30;;;34.47;;
809;SDS011;387;48.772;9.186;2022-12-18T00:56:21;95.80;;;34.00;;
809;SDS011;387;48.772;9.186;2022-12-18T00:58:47;80.47;;;32.55;;
809;SDS011;387;48.772;9.186;2022-12-18T01:01:13;88.95;;;33.05;;
809;SDS011;387;48.772;9.186;2022-12-18T01:03:39;86.57;;;33.15;;
809;SDS011;387;48.772;9.186;2022-12-18T01:06:05;78.00;;;31.47;;
809;SDS011;387;48.772;9.186;2022-12-18T01:08:36;74.65;;;30.38;;
809;SDS011;387;48.772;9.186;2022-12-18T01:11:09;81.53;;;31.35;;
809;SDS011;387;48.772;9.186;2022-12-18T01:13:39;81.18;;;32.85;;
809;SDS011;387;48.772;9.186;2022-12-18T01:16:05;84.97;;;32.83;;
809;SDS011;387;48.772;9.186;2022-12-18T01:18:31;97.90;;;35.17;;
809;SDS011;387;48.772;9.186;2022-12-18T01:20:56;74.30;;;31.27;;
809;SDS011;387;48.772;9.186;2022-12-18T01:23:22;96.03;;;34.53;;
809;SDS011;387;48.772;9.186;2022-12-18T01:25:48;86.20;;;32.67;;
809;SDS011;387;48.772;9.186;2022-12-18T01:28:13;82.27;;;31.00;;
809;SDS011;387;48.772;9.186;2022-12-18T01:30:39;98.80;;;34.83;;
809;SDS011;387;48.772;9.186;2022-12-18T01:33:04;74.80;;;31.33;;
809;SDS011;387;48.772;9.186;2022-12-18T01:35:30;80.70;;;31.53;;
809;SDS011;387;48.772;9.186;2022-12-18T01:37:56;74.27;;;31.27;;
809;SDS011;387;48.772;9.186;2022-12-18T01:40:22;88.35;;;31.08;;
809;SDS011;387;48.772;9.186;2022-12-18T01:42:51;84.23;;;31.80;;
809;SDS011;387;48.772;9.186;2022-12-18T01:47:53;79.37;;;30.57;;
809;SDS011;387;48.772;9.186;2022-12-18T01:50:31;83.68;;;33.15;;
809;SDS011;387;48.772;9.186;2022-12-18T01:55:38;81.03;;;31.83;;
809;SDS011;387;48.772;9.186;2022-12-18T01:58:08;83.95;;;31.77;;
809;SDS011;387;48.772;9.186;2022-12-18T02:00:33;81.73;;;32.70;;
809;SDS011;387;48.772;9.186;2022-12-18T02:02:59;80.47;;;30.20;;
809;SDS011;387;48.772;9.186;2022-12-18T02:05:31;94.13;;;33.30;;
809;SDS011;387;48.772;9.186;2022-12-18T02:08:19;84.07;;;32.22;;
809;SDS011;387;48.772;9.186;2022-12-18T02:11:08;80.70;;;32.83;;
809;SDS011;387;48.772;9.186;2022-12-18T02:16:34;105.60;;;37.92;;
809;SDS011;387;48.772;9.186;2022-12-18T02:21:58;82.82;;;32.80;;
809;SDS011;387;48.772;9.186;2022-12-18T02:27:59;82.32;;;31.48;;
809;SDS011;387;48.772;9.186;2022-12-18T02:30:27;84.28;;;33.38;;
809;SDS011;387;48.772;9.186;2022-12-18T02:32:56;76.78;;;30.85;;
809;SDS011;387;48.772;9.186;2022-12-18T02:35:25;95.43;;;30.17;;
809;SDS011;387;48.772;9.186;2022-12-18T02:37:53;71.15;;;30.77;;
809;SDS011;387;48.772;9.186;2022-12-18T02:40:20;69.03;;;28.50;;
809;SDS011;387;48.772;9.186;2022-12-18T02:42:48;85.85;;;31.95;;
809;SDS011;387;48.772;9.186;2022-12-18T02:45:14;88.30;;;32.33;;
809;SDS011;387;48.772;9.186;2022-12-18T02:47:41;69.43;;;28.93;;
809;SDS011;387;48.772;9.186;2022-12-18T02:58:30;67.68;;;28.25;;
809;SDS011;387;48.772;9.186;2022-12-18T03:01:24;70.47;;;27.77;;
809;SDS011;387;48.772;9.186;2022-12-18T03:04:11;91.10;;;30.55;;
809;SDS011;387;48.772;9.186;2022-12-18T03:06:59;73.25;;;29.15;;
809;SDS011;387;48.772;9.186;2022-12-18T03:09:29;74.47;;;28.75;;
809;SDS011;387;48.772;9.186;2022-12-18T03:12:03;67.15;;;27.42;;
809;SDS011;387;48.772;9.186;2022-12-18T03:14:49;61.33;;;27.02;;
809;SDS011;387;48.772;9.186;2022-12-18T03:17:28;59.40;;;25.33;;
809;SDS011;387;48.772;9.186;2022-12-18T03:19:58;64.65;;;25.48;;
809;SDS011;387;48.772;9.186;2022-12-18T03:22:29;58.97;;;23.98;;
809;SDS011;387;48.772;9.186;2022-12-18T03:24:57;66.90;;;26.00;;
809;SDS011;387;48.772;9.186;2022-12-18T03:27:25;63.45;;;24.05;;
809;SDS011;387;48.772;9.186;2022-12-18T03:30:00;69.65;;;27.13;;
809;SDS011;387;48.772;9.186;2022-12-18T03:35:05;57.03;;;25.05;;
809;SDS011;387;48.772;9.186;2022-12-18T03:37:33;59.17;;;22.45;;
809;SDS011;387;48.772;9.186;2022-12-18T03:39:59;61.80;;;25.52;;
809;SDS011;387;48.772;9.186;2022-12-18T03:45:22;54.00;;;23.05;;
809;SDS011;387;48.772;9.186;2022-12-18T03:53:31;60.80;;;23.95;;
809;SDS011;387;48.772;9.186;2022-12-18T03:56:08;51.80;;;22.48;;
809;SDS011;387;48.772;9.186;2022-12-18T03:58:35;62.63;;;24.70;;
809;SDS011;387;48.772;9.186;2022-12-18T04:01:03;63.97;;;26.25;;
809;SDS011;387;48.772;9.186;2022-12-18T04:03:32;59.70;;;23.05;;
809;SDS011;387;48.772;9.186;2022-12-18T04:06:00;55.50;;;23.60;;
809;SDS011;387;48.772;9.186;2022-12-18T04:08:26;64.97;;;24.98;;
809;SDS011;387;48.772;9.186;2022-12-18T04:10:53;59.67;;;23.73;;
809;SDS011;387;48.772;9.186;2022-12-18T04:13:22;56.93;;;23.70;;
809;SDS011;387;48.772;9.186;2022-12-18T04:15:49;57.60;;;24.15;;
809;SDS011;387;48.772;9.186;2022-12-18T04:18:14;63.13;;;25.90;;
809;SDS011;387;48.772;9.186;2022-12-18T04:20:40;64.70;;;23.80;;
809;SDS011;387;48.772;9.186;2022-12-18T04:23:05;52.97;;;24.20;;
809;SDS011;387;48.772;9.186;2022-12-18T04:25:31;54.57;;;22.60;;
809;SDS011;387;48.772;9.186;2022-12-18T04:27:57;62.37;;;24.47;;
809;SDS011;387;48.772;9.186;2022-12-18T04:30:22;50.53;;;23.07;;
809;SDS011;387;48.772;9.186;2022-12-18T04:32:48;64.33;;;26.03;;
809;SDS011;387;48.772;9.186;2022-12-18T04:35:13;59.47;;;23.83;;
809;SDS011;387;48.772;9.186;2022-12-18T04:37:39;62.77;;;25.00;;
809;SDS011;387;48.772;9.186;2022-12-18T04:40:05;55.50;;;23.87;;
809;SDS011;387;48.772;9.186;2022-12-18T04:42:31;66.22;;;23.35;;
809;SDS011;387;48.772;9.186;2022-12-18T04:44:56;63.13;;;25.37;;
809;SDS011;387;48.772;9.186;2022-12-18T04:47:22;51.63;;;22.80;;
809;SDS011;387;48.772;9.186;2022-12-18T04:49:47;61.37;;;24.73;;
809;SDS011;387;48.772;9.186;2022-12-18T04:52:13;61.33;;;23.20;;
809;SDS011;387;48.772;9.186;2022-12-18T04:54:39;59.03;;;23.60;;
809;SDS011;387;48.772;9.186;2022-12-18T04:57:04;66.30;;;25.20;;
809;SDS011;387;48.772;9.186;2022-12-18T04:59:30;56.17;;;23.10;;
809;SDS011;387;48.772;9.186;2022-12-18T05:01:55;65.47;;;23.50;;
809;SDS011;387;48.772;9.186;2022-12-18T05:04:21;61.63;;;23.20;;
809;SDS011;387;48.772;9.186;2022-12-18T05:06:46;60.00;;;24.03;;
809;SDS011;387;48.772;9.186;2022-12-18T05:09:12;54.73;;;23.50;;
809;SDS011;387;48.772;9.186;2022-12-18T05:11:37;56.23;;;21.97;;
809;SDS011;387;48.772;9.186;2022-12-18T05:14:03;62.87;;;23.17;;
809;SDS011;387;48.772;9.186;2022-12-18T05:16:28;50.47;;;22.73;;
809;SDS011;387;48.772;9.186;2022-12-18T05:18:54;62.33;;;24.30;;
809;SDS011;387;48.772;9.186;2022-12-18T05:21:20;58.47;;;22.97;;
809;SDS011;387;48.772;9.186;2022-12-18T05:23:45;65.80;;;26.50;;
809;SDS011;387;48.772;9.186;2022-12-18T05:26:14;63.30;;;22.60;;
809;SDS011;387;48.772;9.186;2022-12-18T05:28:41;59.58;;;22.80;;
809;SDS011;387;48.772;9.186;2022-12-18T05:31:07;54.30;;;21.70;;
809;SDS011;387;48.772;9.186;2022-12-18T05:33:34;55.20;;;22.95;;
809;SDS011;387;48.772;9.186;2022-12-18T05:36:00;58.70;;;22.85;;
809;SDS011;387;48.772;9.186;2022-12-18T05:38:28;59.88;;;22.63;;
809;SDS011;387;48.772;9.186;2022-12-18T05:40:54;58.05;;;21.92;;
809;SDS011;387;48.772;9.186;2022-12-18T05:43:21;60.55;;;22.88;;
809;SDS011;387;48.772;9.186;2022-12-18T05:45:48;61.63;;;24.08;;
809;SDS011;387;48.772;9.186;2022-12-18T05:48:14;61.03;;;23.58;;
809;SDS011;387;48.772;9.186;2022-12-18T05:50:41;61.30;;;23.27;;
809;SDS011;387;48.772;9.186;2022-12-18T05:53:10;61.80;;;23.73;;
809;SDS011;387;48.772;9.186;2022-12-18T05:55:37;55.78;;;22.90;;
809;SDS011;387;48.772;9.186;2022-12-18T05:58:05;49.55;;;22.65;;
809;SDS011;387;48.772;9.186;2022-12-18T06:00:32;53.00;;;22.92;;
809;SDS011;387;48.772;9.186;2022-12-18T06:02:59;57.60;;;24.50;;
809;SDS011;387;48.772;9.186;2022-12-18T06:05:25;54.47;;;23.77;;
809;SDS011;387;48.772;9.186;2022-12-18T06:07:51;63.30;;;22.35;;
809;SDS011;387;48.772;9.186;2022-12-18T06:10:17;65.40;;;25.60;;
809;SDS011;387;48.772;9.186;2022-12-18T06:12:43;59.93;;;24.13;;
809;SDS011;387;48.772;9.186;2022-12-18T06:15:09;62.43;;;23.60;;
809;SDS011;387;48.772;9.186;2022-12-18T06:17:36;54.53;;;23.17;;
809;SDS011;387;48.772;9.186;2022-12-18T06:20:02;54.55;;;21.90;;
809;SDS011;387;48.772;9.186;2022-12-18T06:22:30;60.80;;;25.92;;
809;SDS011;387;48.772;9.186;2022-12-18T06:24:56;58.03;;;22.40;;
809;SDS011;387;48.772;9.186;2022-12-18T06:27:21;56.33;;;23.17;;
809;SDS011;387;48.772;9.186;2022-12-18T06:29:47;63.20;;;23.87;;
809;SDS011;387;48.772;9.186;2022-12-18T06:32:12;51.13;;;23.37;;
809;SDS011;387;48.772;9.186;2022-12-18T06:34:38;59.50;;;22.73;;
809;SDS011;387;48.772;9.186;2022-12-18T06:37:03;57.60;;;22.80;;
809;SDS011;387;48.772;9.186;2022-12-18T06:39:29;61.53;;;23.30;;
809;SDS011;387;48.772;9.186;2022-12-18T06:41:55;53.40;;;21.50;;
809;SDS011;387;48.772;9.186;2022-12-18T06:44:20;62.80;;;22.00;;
809;SDS011;387;48.772;9.186;2022-12-18T06:46:46;57.87;;;23.43;;
809;SDS011;387;48.772;9.186;2022-12-18T06:49:12;60.67;;;24.30;;
809;SDS011;387;48.772;9.186;2022-12-18T06:51:38;54.20;;;23.13;;
809;SDS011;387;48.772;9.186;2022-12-18T06:54:03;59.77;;;22.77;;
809;SDS011;387;48.772;9.186;2022-12-18T06:56:29;58.07;;;21.93;;
809;SDS011;387;48.772;9.186;2022-12-18T06:58:55;67.40;;;23.30;;
809;SDS011;387;48.772;9.186;2022-12-18T07:01:21;53.43;;;22.40;;
809;SDS011;387;48.772;9.186;2022-12-18T07:03:47;60.00;;;22.20;;
809;SDS011;387;48.772;9.186;2022-12-18T07:06:18;53.67;;;22.40;;
809;SDS011;387;48.772;9.186;2022-12-18T07:08:45;60.50;;;24.80;;
809;SDS011;387;48.772;9.186;2022-12-18T07:11:11;58.75;;;23.45;;
809;SDS011;387;48.772;9.186;2022-12-18T07:13:37;63.13;;;22.90;;
809;SDS011;387;48.772;9.186;2022-12-18T07:16:13;60.97;;;23.13;;
809;SDS011;387;48.772;9.186;2022-12-18T07:18:40;50.78;;;21.88;;
809;SDS011;387;48.772;9.186;2022-12-18T07:21:07;57.10;;;25.03;;
809;SDS011;387;48.772;9.186;2022-12-18T07:23:35;58.90;;;22.55;;
809;SDS011;387;48.772;9.186;2022-12-18T07:26:02;57.95;;;22.88;;
809;SDS011;387;48.772;9.186;2022-12-18T07:28:29;57.47;;;21.48;;
809;SDS011;387;48.772;9.186;2022-12-18T07:30:54;70.00;;;24.83;;
809;SDS011;387;48.772;9.186;2022-12-18T07:33:20;46.60;;;20.67;;
809;SDS011;387;48.772;9.186;2022-12-18T07:35:45;56.97;;;21.40;;
809;SDS011;387;48.772;9.186;2022-12-18T07:38:11;59.03;;;22.07;;
809;SDS011;387;48.772;9.186;2022-12-18T07:40:37;73.80;;;26.80;;
809;SDS011;387;48.772;9.186;2022-12-18T07:43:02;60.30;;;22.87;;
809;SDS011;387;48.772;9.186;2022-12-18T07:45:28;72.17;;;23.60;;
809;SDS011;387;48.772;9.186;2022-12-18T07:47:56;57.35;;;21.88;;
809;SDS011;387;48.772;9.186;2022-12-18T07:50:21;64.00;;;22.07;;
809;SDS011;387;48.772;9.186;2022-12-18T07:52:48;51.63;;;22.38;;
809;SDS011;387;48.772;9.186;2022-12-18T07:55:14;57.30;;;24.07;;
809;SDS011;387;48.772;9.186;2022-12-18T07:57:40;70.20;;;25.17;;
809;SDS011;387;48.772;9.186;2022-12-18T08:00:05;61.07;;;24.03;;
809;SDS011;387;48.772;9.186;2022-12-18T08:02:33;63.22;;;23.13;;
809;SDS011;387;48.772;9.186;2022-12-18T08:04:59;55.80;;;22.77;;
809;SDS011;387;48.772;9.186;2022-12-18T08:07:24;55.23;;;21.20;;
809;SDS011;387;48.772;9.186;2022-12-18T08:09:50;62.40;;;23.80;;
809;SDS011;387;48.772;9.186;2022-12-18T08:12:16;58.53;;;22.73;;
809;SDS011;387;48.772;9.186;2022-12-18T08:14:41;57.80;;;22.83;;
809;SDS011;387;48.772;9.186;2022-12-18T08:17:07;65.50;;;22.57;;
809;SDS011;387;48.772;9.186;2022-12-18T08:19:32;57.73;;;22.30;;
809;SDS011;387;48.772;9.186;2022-12-18T08:21:58;60.07;;;24.83;;
809;SDS011;387;48.772;9.186;2022-12-18T08:24:24;63.97;;;23.93;;
809;SDS011;387;48.772;9.186;2022-12-18T08:26:49;60.60;;;23.73;;
809;SDS011;387;48.772;9.186;2022-12-18T08:29:15;66.23;;;24.53;;
809;SDS011;387;48.772;9.186;2022-12-18T08:31:41;58.33;;;24.50;;
809;SDS011;387;48.772;9.186;2022-12-18T08:34:07;56.37;;;22.77;;
809;SDS011;387;48.772;9.186;2022-12-18T08:36:33;67.15;;;22.80;;
809;SDS011;387;48.772;9.186;2022-12-18T08:38:59;61.23;;;22.80;;
809;SDS011;387;48.772;9.186;2022-12-18T08:41:24;65.87;;;24.07;;
809;SDS011;387;48.772;9.186;2022-12-18T08:43:50;57.50;;;22.80;;
809;SDS011;387;48.772;9.186;2022-12-18T08:46:36;58.78;;;23.02;;
809;SDS011;387;48.772;9.186;2022-12-18T08:49:03;69.50;;;25.92;;
809;SDS011;387;48.772;9.186;2022-12-18T08:51:30;62.90;;;24.20;;
809;SDS011;387;48.772;9.186;2022-12-18T08:53:56;56.53;;;23.03;;
809;SDS011;387;48.772;9.186;2022-12-18T08:56:21;64.57;;;24.73;;
809;SDS011;387;48.772;9.186;2022-12-18T08:58:47;54.73;;;23.57;;
809;SDS011;387;48.772;9.186;2022-12-18T09:01:15;63.15;;;24.35;;
809;SDS011;387;48.772;9.186;2022-12-18T09:03:41;68.80;;;25.63;;
809;SDS011;387;48.772;9.186;2022-12-18T09:06:07;66.83;;;26.13;;
809;SDS011;387;48.772;9.186;2022-12-18T09:08:33;68.25;;;25.90;;
809;SDS011;387;48.772;9.186;2022-12-18T09:11:01;64.13;;;26.20;;
809;SDS011;387;48.772;9.186;2022-12-18T09:13:27;69.57;;;25.57;;
809;SDS011;387;48.772;9.186;2022-12-18T09:15:53;67.97;;;26.10;;
809;SDS011;387;48.772;9.186;2022-12-18T09:18:21;64.50;;;26.23;;
809;SDS011;387;48.772;9.186;2022-12-18T09:20:48;71.10;;;26.58;;
809;SDS011;387;48.772;9.186;2022-12-18T09:23:16;70.50;;;26.23;;
809;SDS011;387;48.772;9.186;2022-12-18T09:25:42;62.00;;;25.30;;
809;SDS011;387;48.772;9.186;2022-12-18T09:28:11;65.70;;;28.20;;
809;SDS011;387;48.772;9.186;2022-12-18T09:30:41;61.05;;;26.30;;
809;SDS011;387;48.772;9.186;2022-12-18T09:33:09;63.35;;;25.85;;
809;SDS011;387;48.772;9.186;2022-12-18T09:35:38;62.80;;;25.67;;
809;SDS011;387;48.772;9.186;2022-12-18T09:38:05;66.20;;;27.20;;
809;SDS011;387;48.772;9.186;2022-12-18T09:40:41;74.38;;;26.50;;
809;SDS011;387;48.772;9.186;2022-12-18T09:43:12;54.58;;;24.35;;
809;SDS011;387;48.772;9.186;2022-12-18T09:46:01;64.10;;;27.42;;
809;SDS011;387;48.772;9.186;2022-12-18T09:48:32;67.80;;;27.92;;
809;SDS011;387;48.772;9.186;2022-12-18T09:53:46;68.25;;;28.00;;
809;SDS011;387;48.772;9.186;2022-12-18T09:56:18;70.90;;;27.52;;
809;SDS011;387;48.772;9.186;2022-12-18T09:58:50;66.82;;;26.58;;
809;SDS011;387;48.772;9.186;2022-12-18T10:01:25;66.35;;;26.73;;
809;SDS011;387;48.772;9.186;2022-12-18T10:03:52;64.70;;;27.98;;
809;SDS011;387;48.772;9.186;2022-12-18T10:06:24;64.93;;;25.58;;
809;SDS011;387;48.772;9.186;2022-12-18T10:12:08;71.65;;;27.02;;
809;SDS011;387;48.772;9.186;2022-12-18T10:14:45;73.40;;;28.48;;
809;SDS011;387;48.772;9.186;2022-12-18T10:20:10;63.70;;;27.73;;
809;SDS011;387;48.772;9.186;2022-12-18T10:22:57;64.28;;;25.50;;
809;SDS011;387;48.772;9.186;2022-12-18T10:28:36;56.05;;;23.10;;
809;SDS011;387;48.772;9.186;2022-12-18T10:31:07;58.63;;;21.52;;
809;SDS011;387;48.772;9.186;2022-12-18T10:33:43;57.50;;;21.13;;
809;SDS011;387;48.772;9.186;2022-12-18T10:36:09;54.08;;;20.33;;
809;SDS011;387;48.772;9.186;2022-12-18T10:38:35;60.20;;;22.83;;
809;SDS011;387;48.772;9.186;2022-12-18T10:41:01;54.13;;;20.00;;
809;SDS011;387;48.772;9.186;2022-12-18T10:46:04;48.17;;;20.85;;
809;SDS011;387;48.772;9.186;2022-12-18T10:48:34;50.05;;;20.95;;
809;SDS011;387;48.772;9.186;2022-12-18T10:51:22;55.55;;;21.25;;
809;SDS011;387;48.772;9.186;2022-12-18T10:56:25;53.05;;;21.77;;
809;SDS011;387;48.772;9.186;2022-12-18T10:59:03;50.15;;;21.80;;
809;SDS011;387;48.772;9.186;2022-12-18T11:02:23;51.00;;;20.10;;
809;SDS011;387;48.772;9.186;2022-12-18T11:07:00;52.15;;;21.38;;
809;SDS011;387;48.772;9.186;2022-12-18T11:09:28;48.50;;;19.88;;
809;SDS011;387;48.772;9.186;2022-12-18T11:12:02;41.35;;;18.85;;
809;SDS011;387;48.772;9.186;2022-12-18T11:14:42;56.30;;;20.35;;
809;SDS011;387;48.772;9.186;2022-12-18T11:17:18;57.38;;;20.48;;
809;SDS011;387;48.772;9.186;2022-12-18T11:19:58;56.72;;;20.70;;
809;SDS011;387;48.772;9.186;2022-12-18T11:22:30;48.72;;;20.23;;
809;SDS011;387;48.772;9.186;2022-12-18T11:25:18;49.60;;;20.38;;
809;SDS011;387;48.772;9.186;2022-12-18T11:27:51;51.88;;;21.92;;
809;SDS011;387;48.772;9.186;2022-12-18T11:32:47;49.63;;;19.95;;
809;SDS011;387;48.772;9.186;2022-12-18T11:35:25;50.53;;;21.10;;
809;SDS011;387;48.772;9.186;2022-12-18T11:38:04;56.42;;;20.92;;
809;SDS011;387;48.772;9.186;2022-12-18T11:40:36;45.90;;;21.73;;
809;SDS011;387;48.772;9.186;2022-12-18T11:43:07;45.15;;;20.17;;
809;SDS011;387;48.772;9.186;2022-12-18T11:45:45;43.42;;;18.00;;
809;SDS011;387;48.772;9.186;2022-12-18T11:48:18;50.45;;;20.75;;
809;SDS011;387;48.772;9.186;2022-12-18T11:50:49;56.13;;;20.15;;
809;SDS011;387;48.772;9.186;2022-12-18T11:53:17;54.83;;;19.48;;
809;SDS011;387;48.772;9.186;2022-12-18T11:56:05;48.30;;;18.13;;
809;SDS011;387;48.772;9.186;2022-12-18T11:58:41;50.92;;;20.75;;
809;SDS011;387;48.772;9.186;2022-12-18T12:09:17;45.83;;;18.80;;
809;SDS011;387;48.772;9.186;2022-12-18T12:12:15;42.08;;;18.35;;
809;SDS011;387;48.772;9.186;2022-12-18T12:23:22;44.63;;;19.13;;
809;SDS011;387;48.772;9.186;2022-12-18T12:34:31;45.95;;;18.77;;
809;SDS011;387;48.772;9.186;2022-12-18T12:37:41;53.28;;;22.08;;
809;SDS011;387;48.772;9.186;2022-12-18T12:40:29;51.40;;;19.02;;
809;SDS011;387;48.772;9.186;2022-12-18T12:43:00;48.95;;;19.95;;
809;SDS011;387;48.772;9.186;2022-12-18T12:46:03;51.55;;;20.70;;
809;SDS011;387;48.772;9.186;2022-12-18T12:48:40;52.22;;;21.88;;
809;SDS011;387;48.772;9.186;2022-12-18T12:53:55;46.85;;;19.85;;
809;SDS011;387;48.772;9.186;2022-12-18T12:56:32;49.13;;;20.17;;
809;SDS011;387;48.772;9.186;2022-12-18T12:59:13;50.83;;;20.40;;
809;SDS011;387;48.772;9.186;2022-12-18T13:02:02;48.47;;;20.00;;
809;SDS011;387;48.772;9.186;2022-12-18T13:04:34;52.03;;;20.30;;
809;SDS011;387;48.772;9.186;2022-12-18T13:12:54;53.05;;;19.63;;
809;SDS011;387;48.772;9.186;2022-12-18T13:15:30;53.10;;;20.83;;
809;SDS011;387;48.772;9.186;2022-12-18T13:20:39;52.42;;;20.95;;
809;SDS011;387;48.772;9.186;2022-12-18T13:25:48;47.92;;;19.30;;
809;SDS011;387;48.772;9.186;2022-12-18T13:31:04;45.47;;;19.30;;
809;SDS011;387;48.772;9.186;2022-12-18T13:38:46;57.63;;;20.52;;
809;SDS011;387;48.772;9.186;2022-12-18T13:43:48;49.28;;;20.13;;
809;SDS011;387;48.772;9.186;2022-12-18T13:49:13;47.97;;;19.90;;
809;SDS011;387;48.772;9.186;2022-12-18T13:51:43;51.65;;;21.73;;
809;SDS011;387;48.772;9.186;2022-12-18T13:57:00;56.05;;;20.63;;
809;SDS011;387;48.772;9.186;2022-12-18T13:59:38;55.53;;;21.98;;
809;SDS011;387;48.772;9.186;2022-12-18T14:02:20;50.17;;;20.30;;
809;SDS011;387;48.772;9.186;2022-12-18T14:04:49;57.42;;;22.52;;
809;SDS011;387;48.772;9.186;2022-12-18T14:07:19;52.47;;;21.35;;
809;SDS011;387;48.772;9.186;2022-12-18T14:09:51;53.30;;;21.42;;
809;SDS011;387;48.772;9.186;2022-12-18T14:12:20;54.33;;;22.83;;
809;SDS011;387;48.772;9.186;2022-12-18T14:15:19;53.88;;;22.70;;
809;SDS011;387;48.772;9.186;2022-12-18T14:17:46;55.65;;;20.90;;
809;SDS011;387;48.772;9.186;2022-12-18T14:20:15;57.42;;;22.65;;
809;SDS011;387;48.772;9.186;2022-12-18T14:22:45;53.35;;;22.33;;
809;SDS011;387;48.772;9.186;2022-12-18T14:27:38;58.20;;;23.07;;
809;SDS011;387;48.772;9.186;2022-12-18T14:33:26;58.90;;;22.27;;
809;SDS011;387;48.772;9.186;2022-12-18T14:38:36;54.15;;;22.27;;
809;SDS011;387;48.772;9.186;2022-12-18T14:41:06;50.85;;;22.70;;
809;SDS011;387;48.772;9.186;2022-12-18T14:43:38;52.70;;;22.67;;
809;SDS011;387;48.772;9.186;2022-12-18T14:46:05;59.47;;;23.60;;
809;SDS011;387;48.772;9.186;2022-12-18T14:48:51;58.42;;;23.42;;
809;SDS011;387;48.772;9.186;2022-12-18T14:51:18;61.67;;;22.90;;
809;SDS011;387;48.772;9.186;2022-12-18T14:53:53;59.83;;;23.33;;
809;SDS011;387;48.772;9.186;2022-12-18T14:56:30;58.90;;;23.00;;
809;SDS011;387;48.772;9.186;2022-12-18T14:58:59;61.83;;;23.95;;
809;SDS011;387;48.772;9.186;2022-12-18T15:01:39;53.10;;;22.60;;
809;SDS011;387;48.772;9.186;2022-12-18T15:07:04;56.45;;;23.20;;
809;SDS011;387;48.772;9.186;2022-12-18T15:09:31;62.35;;;26.70;;
809;SDS011;387;48.772;9.186;2022-12-18T15:11:57;58.23;;;23.33;;
809;SDS011;387;48.772;9.186;2022-12-18T15:14:31;68.55;;;26.00;;
809;SDS011;387;48.772;9.186;2022-12-18T15:17:06;54.78;;;22.60;;
809;SDS011;387;48.772;9.186;2022-12-18T15:20:01;61.55;;;24.05;;
809;SDS011;387;48.772;9.186;2022-12-18T15:22:34;58.83;;;23.70;;
809;SDS011;387;48.772;9.186;2022-12-18T15:25:00;60.95;;;24.40;;
809;SDS011;387;48.772;9.186;2022-12-18T15:27:30;64.30;;;25.45;;
809;SDS011;387;48.772;9.186;2022-12-18T15:32:33;63.33;;;25.20;;
809;SDS011;387;48.772;9.186;2022-12-18T15:35:03;64.75;;;25.73;;
809;SDS011;387;48.772;9.186;2022-12-18T15:37:34;62.90;;;25.55;;
809;SDS011;387;48.772;9.186;2022-12-18T15:40:00;65.93;;;25.43;;
809;SDS011;387;48.772;9.186;2022-12-18T15:42:27;69.90;;;26.20;;
809;SDS011;387;48.772;9.186;2022-12-18T15:45:12;66.50;;;27.02;;
809;SDS011;387;48.772;9.186;2022-12-18T15:47:38;73.88;;;26.50;;
809;SDS011;387;48.772;9.186;2022-12-18T15:50:04;59.40;;;24.17;;
809;SDS011;387;48.772;9.186;2022-12-18T15:52:31;78.10;;;26.75;;
809;SDS011;387;48.772;9.186;2022-12-18T15:55:14;75.55;;;26.30;;
809;SDS011;387;48.772;9.186;2022-12-18T15:58:04;76.38;;;27.17;;
809;SDS011;387;48.772;9.186;2022-12-18T16:00:31;58.47;;;23.55;;
809;SDS011;387;48.772;9.186;2022-12-18T16:02:58;63.35;;;25.65;;
809;SDS011;387;48.772;9.186;2022-12-18T16:05:24;57.90;;;24.13;;
809;SDS011;387;48.772;9.186;2022-12-18T16:07:51;59.15;;;26.85;;
809;SDS011;387;48.772;9.186;2022-12-18T16:10:17;61.83;;;25.53;;
809;SDS011;387;48.772;9.186;2022-12-18T16:12:43;64.47;;;26.60;;
809;SDS011;387;48.772;9.186;2022-12-18T16:15:10;70.60;;;27.40;;
809;SDS011;387;48.772;9.186;2022-12-18T16:17:40;67.78;;;27.55;;
809;SDS011;387;48.772;9.186;2022-12-18T16:20:14;61.60;;;25.55;;
809;SDS011;387;48.772;9.186;2022-12-18T16:22:41;75.93;;;27.65;;
809;SDS011;387;48.772;9.186;2022-12-18T16:25:16;60.10;;;26.55;;
809;SDS011;387;48.772;9.186;2022-12-18T16:27:42;66.43;;;26.75;;
809;SDS011;387;48.772;9.186;2022-12-18T16:30:12;74.40;;;30.03;;
809;SDS011;387;48.772;9.186;2022-12-18T16:32:42;52.28;;;25.60;;
809;SDS011;387;48.772;9.186;2022-12-18T16:35:09;63.17;;;27.75;;
809;SDS011;387;48.772;9.186;2022-12-18T16:37:39;84.63;;;30.30;;
809;SDS011;387;48.772;9.186;2022-12-18T16:40:06;77.72;;;28.85;;
809;SDS011;387;48.772;9.186;2022-12-18T16:42:34;67.43;;;28.15;;
809;SDS011;387;48.772;9.186;2022-12-18T16:45:04;81.38;;;29.30;;
809;SDS011;387;48.772;9.186;2022-12-18T16:47:31;70.65;;;27.35;;
809;SDS011;387;48.772;9.186;2022-12-18T16:49:57;60.63;;;27.70;;
809;SDS011;387;48.772;9.186;2022-12-18T16:52:22;62.83;;;27.53;;
809;SDS011;387;48.772;9.186;2022-12-18T16:54:48;73.10;;;29.50;;
809;SDS011;387;48.772;9.186;2022-12-18T16:57:17;77.50;;;30.30;;
809;SDS011;387;48.772;9.186;2022-12-18T16:59:44;70.13;;;28.25;;
809;SDS011;387;48.772;9.186;2022-12-18T17:02:14;60.80;;;25.98;;
809;SDS011;387;48.772;9.186;2022-12-18T17:04:47;62.03;;;26.50;;
809;SDS011;387;48.772;9.186;2022-12-18T17:07:14;69.43;;;26.87;;
809;SDS011;387;48.772;9.186;2022-12-18T17:09:40;61.58;;;26.42;;
809;SDS011;387;48.772;9.186;2022-12-18T17:12:05;57.17;;;25.80;;
809;SDS011;387;48.772;9.186;2022-12-18T17:14:31;59.83;;;25.50;;
809;SDS011;387;48.772;9.186;2022-12-18T17:16:58;64.47;;;27.10;;
809;SDS011;387;48.772;9.186;2022-12-18T17:19:26;57.80;;;26.02;;
809;SDS011;387;48.772;9.186;2022-12-18T17:21:53;63.65;;;25.38;;
809;SDS011;387;48.772;9.186;2022-12-18T17:24:19;68.00;;;26.67;;
809;SDS011;387;48.772;9.186;2022-12-18T17:26:45;75.30;;;27.00;;
809;SDS011;387;48.772;9.186;2022-12-18T17:29:16;66.50;;;25.95;;
809;SDS011;387;48.772;9.186;2022-12-18T17:31:44;59.30;;;26.27;;
809;SDS011;387;48.772;9.186;2022-12-18T17:34:10;64.45;;;27.13;;
809;SDS011;387;48.772;9.186;2022-12-18T17:36:37;67.07;;;27.38;;